createdAt,value
2023-05-24T00:00:34.443Z,10.30
2023-05-24T00:03:04.800Z,10.30
2023-05-24T00:05:32.944Z,10.30
2023-05-24T00:08:01.248Z,10.30
2023-05-24T00:10:29.309Z,10.20
2023-05-24T00:12:57.443Z,10.30
2023-05-24T00:15:25.557Z,10.20
2023-05-24T00:17:53.605Z,10.30
2023-05-24T00:20:23.008Z,10.30
2023-05-24T00:22:51.717Z,10.30
2023-05-24T00:25:19.736Z,10.30
2023-05-24T00:27:48.189Z,10.30
2023-05-24T00:30:16.362Z,10.30
2023-05-24T00:32:44.404Z,10.30
2023-05-24T00:35:12.464Z,10.30
2023-05-24T00:37:45.469Z,10.30
2023-05-24T00:40:14.232Z,10.30
2023-05-24T00:42:42.257Z,10.20
2023-05-24T00:45:11.295Z,10.30
2023-05-24T00:47:39.426Z,10.30
2023-05-24T00:50:09.547Z,10.30
2023-05-24T00:52:38.025Z,10.30
2023-05-24T00:55:09.602Z,10.30
2023-05-24T00:57:38.124Z,10.30
2023-05-24T01:00:08.018Z,10.40
2023-05-24T01:02:36.365Z,10.40
2023-05-24T01:05:04.629Z,10.40
2023-05-24T01:07:38.875Z,10.40
2023-05-24T01:10:15.691Z,10.40
2023-05-24T01:12:54.698Z,10.40
2023-05-24T01:15:29.263Z,10.40
2023-05-24T01:18:05.982Z,10.40
2023-05-24T01:20:38.470Z,10.40
2023-05-24T01:23:19.731Z,10.40
2023-05-24T01:26:04.450Z,10.40
2023-05-24T01:28:35.547Z,10.40
2023-05-24T01:31:05.110Z,10.40
2023-05-24T01:33:33.948Z,10.40
2023-05-24T01:36:01.953Z,10.50
2023-05-24T01:38:32.111Z,10.50
2023-05-24T01:41:05.670Z,10.50
2023-05-24T01:43:40.714Z,10.50
2023-05-24T01:46:20.032Z,10.50
2023-05-24T01:48:56.481Z,10.50
2023-05-24T01:51:26.388Z,10.50
2023-05-24T01:53:56.144Z,10.50
2023-05-24T01:56:25.154Z,10.50
2023-05-24T01:58:55.836Z,10.50
2023-05-24T02:01:24.556Z,10.50
2023-05-24T02:03:52.768Z,10.50
2023-05-24T02:06:20.802Z,10.50
2023-05-24T02:08:48.818Z,10.50
2023-05-24T02:11:16.880Z,10.50
2023-05-24T02:13:44.891Z,10.50
2023-05-24T02:16:14.364Z,10.50
2023-05-24T02:18:44.521Z,10.50
2023-05-24T02:21:12.907Z,10.60
2023-05-24T02:23:41.069Z,10.60
2023-05-24T02:26:11.548Z,10.60
2023-05-24T02:28:39.600Z,10.60
2023-05-24T02:31:08.608Z,10.60
2023-05-24T02:33:38.340Z,10.60
2023-05-24T02:36:06.546Z,10.60
2023-05-24T02:38:34.552Z,10.60
2023-05-24T02:41:02.575Z,10.60
2023-05-24T02:43:30.905Z,10.60
2023-05-24T02:45:58.957Z,10.50
2023-05-24T02:48:26.953Z,10.50
2023-05-24T02:50:56.368Z,10.50
2023-05-24T02:53:24.378Z,10.60
2023-05-24T02:55:52.452Z,10.50
2023-05-24T02:58:20.460Z,10.60
2023-05-24T03:00:48.513Z,10.60
2023-05-24T03:03:16.852Z,10.60
2023-05-24T03:05:44.947Z,10.60
2023-05-24T03:08:14.360Z,10.60
2023-05-24T03:10:42.558Z,10.60
2023-05-24T03:13:10.821Z,10.60
2023-05-24T03:15:38.857Z,10.60
2023-05-24T03:18:06.900Z,10.60
2023-05-24T03:20:34.976Z,10.50
2023-05-24T03:23:03.050Z,10.60
2023-05-24T03:25:32.525Z,10.50
2023-05-24T03:28:01.145Z,10.50
2023-05-24T03:30:29.194Z,10.60
2023-05-24T03:32:57.232Z,10.60
2023-05-24T03:35:25.455Z,10.60
2023-05-24T03:37:53.856Z,10.60
2023-05-24T03:40:21.892Z,10.60
2023-05-24T03:42:51.633Z,10.60
2023-05-24T03:45:30.566Z,10.60
2023-05-24T03:48:06.507Z,10.60
2023-05-24T03:50:34.522Z,10.70
2023-05-24T03:53:02.551Z,10.70
2023-05-24T03:55:30.599Z,10.70
2023-05-24T03:58:00.017Z,10.70
2023-05-24T04:00:28.201Z,10.70
2023-05-24T04:02:56.955Z,10.70
2023-05-24T04:05:27.123Z,10.70
2023-05-24T04:07:55.364Z,10.70
2023-05-24T04:10:23.870Z,10.70
2023-05-24T04:12:51.937Z,10.70
2023-05-24T04:15:21.384Z,10.80
2023-05-24T04:17:54.903Z,10.80
2023-05-24T04:20:25.449Z,10.80
2023-05-24T04:22:53.910Z,10.80
2023-05-24T04:25:22.674Z,10.80
2023-05-24T04:27:50.910Z,10.70
2023-05-24T04:30:19.537Z,10.80
2023-05-24T04:32:48.978Z,10.80
2023-05-24T04:35:17.226Z,10.80
2023-05-24T04:37:45.252Z,10.80
2023-05-24T04:40:13.955Z,10.80
2023-05-24T04:42:41.973Z,10.80
2023-05-24T04:45:10.895Z,10.80
2023-05-24T04:47:38.986Z,10.80
2023-05-24T04:50:09.110Z,10.90
2023-05-24T04:52:37.501Z,10.90
2023-05-24T04:55:06.118Z,10.90
2023-05-24T04:57:34.190Z,10.90
2023-05-24T05:00:02.350Z,10.90
2023-05-24T05:02:31.190Z,10.90
2023-05-24T05:04:59.211Z,10.90
2023-05-24T05:07:28.610Z,10.90
2023-05-24T05:09:56.956Z,10.90
2023-05-24T05:12:24.991Z,10.80
2023-05-24T05:14:53.233Z,10.90
2023-05-24T05:17:21.785Z,10.90
2023-05-24T05:19:49.861Z,10.90
2023-05-24T05:22:17.974Z,10.90
2023-05-24T05:24:47.361Z,10.90
2023-05-24T05:27:15.455Z,10.90
2023-05-24T05:29:43.516Z,10.90
2023-05-24T05:32:11.634Z,11.00
2023-05-24T05:34:39.766Z,11.00
2023-05-24T05:37:08.707Z,11.00
2023-05-24T05:39:36.703Z,11.00
2023-05-24T05:42:06.884Z,11.00
2023-05-24T05:44:34.898Z,11.00
2023-05-24T05:47:04.001Z,11.10
2023-05-24T05:49:32.785Z,11.10
2023-05-24T05:52:01.129Z,11.10
2023-05-24T05:54:29.154Z,11.10
2023-05-24T05:56:57.615Z,11.10
2023-05-24T05:59:27.971Z,11.10
2023-05-24T06:01:55.980Z,11.20
2023-05-24T06:04:24.007Z,11.20
2023-05-24T06:06:52.162Z,11.20
2023-05-24T06:09:20.570Z,11.20
2023-05-24T06:11:48.583Z,11.20
2023-05-24T06:14:18.538Z,11.30
2023-05-24T06:16:48.097Z,11.30
2023-05-24T06:19:16.676Z,11.30
2023-05-24T06:21:47.963Z,11.40
2023-05-24T06:24:20.398Z,11.40
2023-05-24T06:26:49.170Z,11.40
2023-05-24T06:29:19.662Z,11.40
2023-05-24T06:31:49.763Z,11.40
2023-05-24T06:34:19.106Z,11.50
2023-05-24T06:36:48.401Z,11.50
2023-05-24T06:39:17.402Z,11.60
2023-05-24T06:41:46.193Z,11.60
2023-05-24T06:44:14.453Z,11.60
2023-05-24T06:46:42.662Z,11.70
2023-05-24T06:49:13.240Z,11.70
2023-05-24T06:51:41.327Z,11.70
2023-05-24T06:54:09.375Z,11.70
2023-05-24T06:56:37.425Z,11.70
2023-05-24T06:59:05.957Z,11.80
2023-05-24T07:01:35.588Z,11.80
2023-05-24T07:04:03.690Z,11.80
2023-05-24T07:06:33.661Z,11.90
2023-05-24T07:09:01.919Z,11.90
2023-05-24T07:11:30.069Z,11.90
2023-05-24T07:13:58.308Z,11.90
2023-05-24T07:16:26.471Z,11.90
2023-05-24T07:18:56.413Z,11.90
2023-05-24T07:21:24.437Z,11.90
2023-05-24T07:23:53.866Z,12.00
2023-05-24T07:26:21.894Z,12.00
2023-05-24T07:28:49.931Z,12.00
2023-05-24T07:31:18.064Z,12.00
2023-05-24T07:33:46.142Z,12.00
2023-05-24T07:36:14.191Z,12.10
2023-05-24T07:38:42.192Z,12.10
2023-05-24T07:41:12.192Z,12.20
2023-05-24T07:43:40.205Z,12.20
2023-05-24T07:46:08.320Z,12.30
2023-05-24T07:48:36.358Z,12.30
2023-05-24T07:51:04.541Z,12.40
2023-05-24T07:53:34.172Z,12.40
2023-05-24T07:56:02.258Z,12.50
2023-05-24T07:58:31.756Z,12.50
2023-05-24T08:00:59.854Z,12.50
2023-05-24T08:03:28.826Z,12.60
2023-05-24T08:05:57.433Z,12.60
2023-05-24T08:08:25.745Z,12.70
2023-05-24T08:10:53.764Z,12.80
2023-05-24T08:13:22.146Z,12.90
2023-05-24T08:15:51.631Z,13.00
2023-05-24T08:18:19.734Z,13.10
2023-05-24T08:20:47.790Z,13.10
2023-05-24T08:23:15.957Z,13.20
2023-05-24T08:25:44.338Z,13.30
2023-05-24T08:28:12.537Z,13.40
2023-05-24T08:30:40.837Z,13.40
2023-05-24T08:33:10.260Z,13.50
2023-05-24T08:35:38.369Z,13.60
2023-05-24T08:38:06.711Z,13.70
2023-05-24T08:40:34.789Z,13.70
2023-05-24T08:43:03.402Z,13.80
2023-05-24T08:45:32.346Z,13.80
2023-05-24T08:48:01.560Z,13.90
2023-05-24T08:50:32.649Z,13.90
2023-05-24T08:53:02.628Z,14.00
2023-05-24T08:55:33.341Z,14.00
2023-05-24T08:58:02.150Z,14.10
2023-05-24T09:00:30.219Z,14.10
2023-05-24T09:02:59.969Z,14.20
2023-05-24T09:05:30.326Z,14.10
2023-05-24T09:08:00.325Z,14.10
2023-05-24T09:10:37.990Z,14.20
2023-05-24T09:13:16.069Z,14.10
2023-05-24T09:15:44.794Z,14.00
2023-05-24T09:18:13.061Z,13.90
2023-05-24T09:20:42.828Z,13.90
2023-05-24T09:23:12.807Z,13.80
2023-05-24T09:25:45.000Z,13.80
2023-05-24T09:28:16.056Z,13.70
2023-05-24T09:30:44.966Z,13.70
2023-05-24T09:33:13.657Z,13.80
2023-05-24T09:35:44.903Z,13.80
2023-05-24T09:38:19.570Z,13.80
2023-05-24T09:40:47.866Z,13.80
2023-05-24T09:43:15.900Z,13.90
2023-05-24T09:45:46.533Z,13.90
2023-05-24T09:48:15.618Z,14.00
2023-05-24T09:50:47.476Z,14.00
2023-05-24T09:53:18.705Z,14.10
2023-05-24T09:55:46.997Z,14.00
2023-05-24T09:58:16.836Z,14.10
2023-05-24T10:00:45.513Z,14.10
2023-05-24T10:03:15.236Z,14.10
2023-05-24T10:05:46.602Z,14.10
2023-05-24T10:08:15.460Z,14.10
2023-05-24T10:10:44.711Z,14.20
2023-05-24T10:13:15.970Z,14.20
2023-05-24T10:15:44.914Z,14.30
2023-05-24T10:18:14.382Z,14.30
2023-05-24T10:20:44.641Z,14.40
2023-05-24T10:23:17.440Z,14.40
2023-05-24T10:25:51.172Z,14.50
2023-05-24T10:28:21.511Z,14.50
2023-05-24T10:31:01.524Z,14.60
2023-05-24T10:33:30.921Z,14.60
2023-05-24T10:36:00.409Z,14.70
2023-05-24T10:38:28.548Z,14.80
2023-05-24T10:40:56.701Z,14.80
2023-05-24T10:43:25.484Z,14.90
2023-05-24T10:45:53.632Z,14.90
2023-05-24T10:48:41.145Z,15.00
2023-05-24T10:51:36.672Z,15.00
2023-05-24T10:54:18.809Z,15.00
2023-05-24T10:56:49.027Z,15.10
2023-05-24T10:59:31.432Z,15.20
2023-05-24T11:02:00.973Z,15.30
2023-05-24T11:04:33.477Z,15.40
2023-05-24T11:07:09.529Z,15.40
2023-05-24T11:09:39.473Z,15.40
2023-05-24T11:12:09.672Z,15.50
2023-05-24T11:14:40.541Z,15.50
2023-05-24T11:17:09.608Z,15.50
2023-05-24T11:19:39.317Z,15.60
2023-05-24T11:22:10.155Z,15.60
2023-05-24T11:24:38.355Z,15.70
2023-05-24T11:27:07.160Z,15.70
2023-05-24T11:29:42.586Z,15.80
2023-05-24T11:32:10.728Z,15.80
2023-05-24T11:34:40.077Z,15.80
2023-05-24T11:37:10.632Z,15.90
2023-05-24T11:39:39.299Z,15.90
2023-05-24T11:42:08.783Z,16.00
2023-05-24T11:44:39.174Z,16.00
2023-05-24T11:47:08.989Z,16.10
2023-05-24T11:49:37.173Z,16.10
2023-05-24T11:52:05.280Z,16.20
2023-05-24T11:54:35.097Z,16.30
2023-05-24T11:57:03.535Z,16.40
2023-05-24T11:59:31.786Z,16.50
2023-05-24T12:02:01.484Z,16.60
2023-05-24T12:04:30.499Z,16.70
2023-05-24T12:06:59.142Z,16.90
2023-05-24T12:09:27.938Z,17.10
2023-05-24T12:11:58.531Z,17.30
2023-05-24T12:14:30.958Z,17.40
2023-05-24T12:16:59.902Z,17.50
2023-05-24T12:19:34.619Z,17.70
2023-05-24T12:22:06.122Z,17.80
2023-05-24T12:24:34.697Z,17.90
2023-05-24T12:27:06.836Z,18.00
2023-05-24T12:29:39.105Z,18.00
2023-05-24T12:32:12.371Z,18.00
2023-05-24T12:34:42.190Z,18.00
2023-05-24T12:37:12.273Z,17.90
2023-05-24T12:39:42.613Z,17.90
2023-05-24T12:42:13.329Z,17.70
2023-05-24T12:44:41.853Z,17.60
2023-05-24T12:47:11.779Z,17.40
2023-05-24T12:49:40.165Z,17.20
2023-05-24T12:52:08.226Z,17.10
2023-05-24T12:54:36.360Z,17.00
2023-05-24T12:57:04.580Z,16.90
2023-05-24T12:59:34.962Z,16.90
2023-05-24T13:02:03.146Z,16.80
2023-05-24T13:04:33.524Z,16.80
2023-05-24T13:07:02.910Z,16.80
2023-05-24T13:09:31.028Z,16.70
2023-05-24T13:11:59.048Z,16.80
2023-05-24T13:14:27.510Z,16.70
2023-05-24T13:16:57.030Z,16.70
2023-05-24T13:19:25.134Z,16.70
2023-05-24T13:21:53.339Z,16.60
2023-05-24T13:24:21.515Z,16.60
2023-05-24T13:26:51.597Z,16.60
2023-05-24T13:29:34.033Z,16.60
2023-05-24T13:32:09.327Z,16.60
2023-05-24T13:34:37.353Z,16.60
2023-05-24T13:37:05.430Z,16.50
2023-05-24T13:39:33.659Z,16.50
2023-05-24T13:42:01.898Z,16.60
2023-05-24T13:44:30.669Z,16.70
2023-05-24T13:46:59.045Z,16.90
2023-05-24T13:49:28.953Z,17.10
2023-05-24T13:51:58.564Z,17.30
2023-05-24T13:54:27.794Z,17.40
2023-05-24T13:56:57.646Z,17.40
2023-05-24T13:59:25.871Z,17.40
2023-05-24T14:01:54.017Z,17.40
2023-05-24T14:04:22.096Z,17.40
2023-05-24T14:06:51.531Z,17.40
2023-05-24T14:09:21.279Z,17.40
2023-05-24T14:11:49.456Z,17.30
2023-05-24T14:16:55.214Z,17.20
2023-05-24T14:19:23.477Z,17.20
2023-05-24T14:21:52.889Z,17.20
2023-05-24T14:24:21.011Z,17.20
2023-05-24T14:26:49.076Z,17.20
2023-05-24T14:29:17.170Z,17.20
2023-05-24T14:31:45.250Z,17.30
2023-05-24T14:34:13.371Z,17.30
2023-05-24T14:36:41.760Z,17.30
2023-05-24T14:39:11.195Z,17.20
2023-05-24T14:41:39.251Z,17.20
2023-05-24T14:44:07.305Z,17.10
2023-05-24T14:46:35.937Z,17.10
2023-05-24T14:49:04.747Z,17.10
2023-05-24T14:51:32.725Z,17.10
2023-05-24T14:54:00.842Z,17.10
2023-05-24T14:56:30.242Z,17.10
2023-05-24T14:58:59.374Z,17.10
2023-05-24T15:01:27.475Z,17.00
2023-05-24T15:03:55.647Z,17.10
2023-05-24T15:06:23.773Z,17.00
2023-05-24T15:08:52.296Z,16.90
2023-05-24T15:11:20.394Z,16.90
2023-05-24T15:13:49.817Z,16.90
2023-05-24T15:16:18.040Z,16.80
2023-05-24T15:18:46.326Z,16.80
2023-05-24T15:21:14.408Z,16.90
2023-05-24T15:23:42.628Z,16.90
2023-05-24T15:26:10.696Z,16.90
2023-05-24T15:28:38.766Z,16.90
2023-05-24T15:31:08.239Z,16.90
2023-05-24T15:33:37.169Z,17.00
2023-05-24T15:36:05.476Z,17.10
2023-05-24T15:38:34.392Z,17.20
2023-05-24T15:41:03.840Z,17.20
2023-05-24T15:43:31.971Z,17.30
2023-05-24T15:46:00.007Z,17.30
2023-05-24T15:48:29.415Z,17.30
2023-05-24T15:51:53.810Z,17.30
2023-05-24T15:53:45.554Z,17.30
2023-05-24T15:56:13.589Z,17.20
2023-05-24T15:58:41.655Z,17.20
2023-05-24T16:01:09.840Z,17.20
2023-05-24T16:03:39.315Z,17.20
2023-05-24T16:06:08.029Z,17.10
2023-05-24T16:08:36.090Z,17.10
2023-05-24T16:11:08.166Z,17.00
2023-05-24T16:13:36.228Z,17.00
2023-05-24T16:16:04.512Z,16.90
2023-05-24T16:18:34.652Z,16.90
2023-05-24T16:21:04.253Z,16.80
2023-05-24T16:23:32.316Z,16.80
2023-05-24T16:26:00.697Z,16.70
2023-05-24T16:28:29.273Z,16.70
2023-05-24T16:30:58.655Z,16.70
2023-05-24T16:33:26.745Z,16.70
2023-05-24T16:35:58.606Z,16.60
2023-05-24T16:38:29.283Z,16.50
2023-05-24T16:40:57.297Z,16.50
2023-05-24T16:43:25.923Z,16.50
2023-05-24T16:45:55.172Z,16.40
2023-05-24T16:48:28.347Z,16.30
2023-05-24T16:50:57.101Z,16.20
2023-05-24T16:53:26.277Z,16.20
2023-05-24T16:55:57.109Z,16.20
2023-05-24T16:58:28.047Z,16.10
2023-05-24T17:00:56.241Z,16.00
2023-05-24T17:03:28.147Z,16.00
2023-05-24T17:06:01.833Z,16.00
2023-05-24T17:08:32.633Z,16.00
2023-05-24T17:11:02.034Z,15.90
2023-05-24T17:13:30.271Z,15.90
2023-05-24T17:15:59.930Z,15.90
2023-05-24T17:18:31.177Z,15.80
2023-05-24T17:21:01.283Z,15.70
2023-05-24T17:23:31.035Z,15.60
2023-05-24T17:25:59.552Z,15.60
2023-05-24T17:28:29.180Z,15.50
2023-05-24T17:30:57.613Z,15.50
2023-05-24T17:33:26.890Z,15.40
2023-05-24T17:35:56.546Z,15.30
2023-05-24T17:38:25.644Z,15.30
2023-05-24T17:40:56.910Z,15.30
2023-05-24T17:43:28.728Z,15.30
2023-05-24T17:46:03.534Z,15.30
2023-05-24T17:48:32.600Z,15.20
2023-05-24T17:51:00.916Z,15.20
2023-05-24T17:53:31.862Z,15.20
2023-05-24T17:56:00.718Z,15.10
2023-05-24T17:58:30.712Z,15.00
2023-05-24T18:01:00.280Z,15.00
2023-05-24T18:03:28.439Z,14.90
2023-05-24T18:05:56.488Z,14.90
2023-05-24T18:08:25.360Z,14.80
2023-05-24T18:10:53.635Z,14.70
2023-05-24T18:13:21.738Z,14.70
2023-05-24T18:15:49.932Z,14.60
2023-05-24T18:18:19.815Z,14.60
2023-05-24T18:20:48.202Z,14.60
2023-05-24T18:23:16.231Z,14.50
2023-05-24T18:25:45.038Z,14.50
2023-05-24T18:28:13.425Z,14.50
2023-05-24T18:30:42.939Z,14.50
2023-05-24T18:33:11.278Z,14.40
2023-05-24T18:35:40.910Z,14.40
2023-05-24T18:38:09.054Z,14.40
2023-05-24T18:40:37.067Z,14.40
2023-05-24T18:43:05.153Z,14.30
2023-05-24T18:45:33.200Z,14.30
2023-05-24T18:48:01.370Z,14.20
2023-05-24T18:50:29.568Z,14.20
2023-05-24T18:52:58.972Z,14.10
2023-05-24T18:55:27.046Z,14.00
2023-05-24T18:57:55.070Z,14.00
2023-05-24T19:00:24.505Z,14.00
2023-05-24T19:02:52.668Z,14.00
2023-05-24T19:05:21.192Z,13.90
2023-05-24T19:07:49.271Z,13.90
2023-05-24T19:10:18.739Z,13.90
2023-05-24T19:12:46.752Z,13.90
2023-05-24T19:15:14.790Z,13.90
2023-05-24T19:17:42.817Z,13.90
2023-05-24T19:20:11.986Z,13.90
2023-05-24T19:22:40.050Z,13.80
2023-05-24T19:25:09.115Z,13.80
2023-05-24T19:27:44.704Z,13.70
2023-05-24T19:30:23.109Z,13.60
2023-05-24T19:32:51.214Z,13.50
2023-05-24T19:35:19.278Z,13.50
2023-05-24T19:37:47.367Z,13.40
2023-05-24T19:40:15.400Z,13.30
2023-05-24T19:42:44.814Z,13.30
2023-05-24T19:45:13.422Z,13.20
2023-05-24T19:47:41.761Z,13.20
2023-05-24T19:50:10.668Z,13.20
2023-05-24T19:52:38.725Z,13.20
2023-05-24T19:55:07.921Z,13.10
2023-05-24T19:57:35.987Z,13.20
2023-05-24T20:00:06.741Z,13.20
2023-05-24T20:02:36.571Z,13.20
2023-05-24T20:05:05.320Z,13.20
2023-05-24T20:07:33.389Z,13.20
2023-05-24T20:10:01.742Z,13.10
2023-05-24T20:12:30.827Z,13.10
2023-05-24T20:14:58.862Z,13.10
2023-05-24T20:17:28.257Z,13.10
2023-05-24T20:19:56.418Z,13.10
2023-05-24T20:22:24.482Z,13.20
2023-05-24T20:24:52.538Z,13.20
2023-05-24T20:27:21.322Z,13.20
2023-05-24T20:29:49.633Z,13.20
2023-05-24T20:32:17.761Z,13.10
2023-05-24T20:34:47.178Z,13.10
2023-05-24T20:37:15.260Z,13.10
2023-05-24T20:39:43.270Z,13.00
2023-05-24T20:42:11.744Z,12.90
2023-05-24T20:44:39.745Z,12.80
2023-05-24T20:47:07.954Z,12.80
2023-05-24T20:49:36.905Z,12.80
2023-05-24T20:52:06.970Z,12.80
2023-05-24T20:54:34.990Z,12.70
2023-05-24T20:57:03.193Z,12.70
2023-05-24T20:59:31.494Z,12.70
2023-05-24T21:01:59.544Z,12.60
2023-05-24T21:04:27.621Z,12.60
2023-05-24T21:06:55.982Z,12.60
2023-05-24T21:09:25.488Z,12.70
2023-05-24T21:11:53.530Z,12.70
2023-05-24T21:14:21.532Z,12.70
2023-05-24T21:16:49.546Z,12.80
2023-05-24T21:19:17.601Z,12.80
2023-05-24T21:21:45.660Z,12.90
2023-05-24T21:24:15.896Z,12.90
2023-05-24T21:26:45.326Z,12.90
2023-05-24T21:29:13.820Z,12.90
2023-05-24T21:31:42.095Z,12.90
2023-05-24T21:34:10.163Z,12.90
2023-05-24T21:36:38.437Z,12.80
2023-05-24T21:39:08.268Z,12.80
2023-05-24T21:41:36.878Z,12.80
2023-05-24T21:44:08.120Z,12.80
2023-05-24T21:46:36.457Z,12.70
2023-05-24T21:49:04.668Z,12.70
2023-05-24T21:51:33.022Z,12.70
2023-05-24T21:54:01.087Z,12.70
2023-05-24T21:56:29.116Z,12.70
2023-05-24T21:58:57.166Z,12.60
2023-05-24T22:01:28.254Z,12.60
2023-05-24T22:03:56.556Z,12.60
2023-05-24T22:06:24.754Z,12.60
2023-05-24T22:08:52.821Z,12.60
2023-05-24T22:11:21.305Z,12.60
2023-05-24T22:13:49.331Z,12.60
2023-05-24T22:16:17.439Z,12.70
2023-05-24T22:18:47.909Z,12.70
2023-05-24T22:21:15.921Z,12.70
2023-05-24T22:23:44.035Z,12.60
2023-05-24T22:26:12.900Z,12.60
2023-05-24T22:28:54.105Z,12.50
2023-05-24T22:31:22.550Z,12.50
2023-05-24T22:33:52.016Z,12.50
2023-05-24T22:36:20.936Z,12.40
2023-05-24T22:38:49.013Z,12.40
2023-05-24T22:41:17.054Z,12.40
2023-05-24T22:43:45.318Z,12.30
2023-05-24T22:46:13.438Z,12.30
2023-05-24T22:48:41.498Z,12.20
2023-05-24T22:51:12.511Z,12.20
2023-05-24T22:53:40.561Z,12.20
2023-05-24T22:56:10.452Z,12.10
2023-05-24T22:58:39.020Z,12.10
2023-05-24T23:01:07.220Z,12.00
2023-05-24T23:03:35.417Z,11.90
2023-05-24T23:06:04.317Z,11.80
2023-05-24T23:08:34.664Z,11.80
2023-05-24T23:11:10.195Z,11.80
2023-05-24T23:13:38.734Z,11.80
2023-05-24T23:16:07.308Z,11.80
2023-05-24T23:18:37.792Z,11.80
2023-05-24T23:21:06.073Z,11.70
2023-05-24T23:23:35.461Z,11.70
2023-05-24T23:26:03.511Z,11.70
2023-05-24T23:28:31.678Z,11.80
2023-05-24T23:30:59.830Z,11.80
2023-05-24T23:33:27.924Z,11.80
2023-05-24T23:35:55.986Z,11.80
2023-05-24T23:38:24.000Z,11.80
2023-05-24T23:40:53.392Z,11.80
2023-05-24T23:43:21.427Z,11.80
2023-05-24T23:45:50.577Z,11.70
2023-05-24T23:48:18.592Z,11.70
2023-05-24T23:50:53.989Z,11.70
2023-05-24T23:53:23.075Z,11.70
2023-05-24T23:55:51.127Z,11.70
2023-05-24T23:58:20.654Z,11.70
